sensor_id;sensor_type;location;lat;lon;timestamp;pressure;altitude;pressure_sealevel;temperature;humidity
75460;BME280;64039;53.060;9.342;2024-03-08T00:01:14;101938.66;;;-0.14;100.00
75460;BME280;64039;53.060;9.342;2024-03-08T00:03:42;101932.34;;;-0.07;100.00
75460;BME280;64039;53.060;9.342;2024-03-08T00:06:07;101939.66;;;-0.12;100.00
75460;BME280;64039;53.060;9.342;2024-03-08T00:08:32;101932.38;;;-0.18;100.00
75460;BME280;64039;53.060;9.342;2024-03-08T00:10:58;101936.59;;;-0.18;100.00
75460;BME280;64039;53.060;9.342;2024-03-08T00:13:24;101939.53;;;-0.24;100.00
75460;BME280;64039;53.060;9.342;2024-03-08T00:15:50;101944.16;;;-0.20;100.00
75460;BME280;64039;53.060;9.342;2024-03-08T00:18:16;101934.31;;;-0.15;100.00
75460;BME280;64039;53.060;9.342;2024-03-08T00:20:42;101944.81;;;-0.22;100.00
75460;BME280;64039;53.060;9.342;2024-03-08T00:23:07;101942.09;;;-0.24;100.00
75460;BME280;64039;53.060;9.342;2024-03-08T00:25:32;101934.16;;;-0.17;100.00
75460;BME280;64039;53.060;9.342;2024-03-08T00:27:59;101932.63;;;-0.25;100.00
75460;BME280;64039;53.060;9.342;2024-03-08T00:30:25;101938.91;;;-0.21;100.00
75460;BME280;64039;53.060;9.342;2024-03-08T00:32:51;101936.47;;;-0.20;100.00
75460;BME280;64039;53.060;9.342;2024-03-08T00:35:16;101934.03;;;-0.28;100.00
75460;BME280;64039;53.060;9.342;2024-03-08T00:37:41;101925.97;;;-0.33;100.00
75460;BME280;64039;53.060;9.342;2024-03-08T00:40:08;101920.63;;;-0.46;100.00
75460;BME280;64039;53.060;9.342;2024-03-08T00:42:34;101929.94;;;-0.37;100.00
75460;BME280;64039;53.060;9.342;2024-03-08T00:45:00;101932.00;;;-0.33;100.00
75460;BME280;64039;53.060;9.342;2024-03-08T00:47:25;101930.34;;;-0.42;100.00
75460;BME280;64039;53.060;9.342;2024-03-08T00:49:51;101928.78;;;-0.40;100.00
75460;BME280;64039;53.060;9.342;2024-03-08T00:52:16;101928.94;;;-0.49;100.00
75460;BME280;64039;53.060;9.342;2024-03-08T00:54:43;101925.47;;;-0.50;100.00
75460;BME280;64039;53.060;9.342;2024-03-08T00:57:09;101926.09;;;-0.52;100.00
75460;BME280;64039;53.060;9.342;2024-03-08T00:59:34;101922.13;;;-0.49;100.00
75460;BME280;64039;53.060;9.342;2024-03-08T01:02:00;101921.75;;;-0.53;100.00
75460;BME280;64039;53.060;9.342;2024-03-08T01:04:26;101908.97;;;-0.53;100.00
75460;BME280;64039;53.060;9.342;2024-03-08T01:06:54;101908.19;;;-0.63;100.00
75460;BME280;64039;53.060;9.342;2024-03-08T01:09:24;101912.06;;;-0.57;100.00
75460;BME280;64039;53.060;9.342;2024-03-08T01:11:50;101906.66;;;-0.60;100.00
75460;BME280;64039;53.060;9.342;2024-03-08T01:14:16;101900.78;;;-0.70;100.00
75460;BME280;64039;53.060;9.342;2024-03-08T01:16:41;101903.22;;;-0.61;100.00
75460;BME280;64039;53.060;9.342;2024-03-08T01:19:07;101898.09;;;-0.71;100.00
75460;BME280;64039;53.060;9.342;2024-03-08T01:21:32;101894.13;;;-0.68;100.00
75460;BME280;64039;53.060;9.342;2024-03-08T01:23:58;101893.75;;;-0.72;100.00
75460;BME280;64039;53.060;9.342;2024-03-08T01:26:23;101889.56;;;-0.72;100.00
75460;BME280;64039;53.060;9.342;2024-03-08T01:28:49;101891.06;;;-0.74;100.00
75460;BME280;64039;53.060;9.342;2024-03-08T01:31:15;101878.03;;;-0.67;100.00
75460;BME280;64039;53.060;9.342;2024-03-08T01:33:41;101871.13;;;-0.78;100.00
75460;BME280;64039;53.060;9.342;2024-03-08T01:36:07;101869.44;;;-0.67;100.00
75460;BME280;64039;53.060;9.342;2024-03-08T01:38:32;101860.13;;;-0.87;100.00
75460;BME280;64039;53.060;9.342;2024-03-08T01:40:59;101865.50;;;-0.84;100.00
75460;BME280;64039;53.060;9.342;2024-03-08T01:43:28;101857.06;;;-0.83;100.00
75460;BME280;64039;53.060;9.342;2024-03-08T01:45:57;101852.69;;;-0.95;100.00
75460;BME280;64039;53.060;9.342;2024-03-08T01:48:25;101851.06;;;-0.94;100.00
75460;BME280;64039;53.060;9.342;2024-03-08T01:50:51;101845.56;;;-0.88;100.00
75460;BME280;64039;53.060;9.342;2024-03-08T01:53:18;101843.63;;;-0.91;100.00
75460;BME280;64039;53.060;9.342;2024-03-08T01:55:46;101840.97;;;-0.82;100.00
75460;BME280;64039;53.060;9.342;2024-03-08T01:58:12;101839.16;;;-0.83;100.00
75460;BME280;64039;53.060;9.342;2024-03-08T02:00:42;101834.94;;;-0.83;100.00
75460;BME280;64039;53.060;9.342;2024-03-08T02:03:09;101834.31;;;-0.90;100.00
75460;BME280;64039;53.060;9.342;2024-03-08T02:05:34;101835.84;;;-0.82;100.00
75460;BME280;64039;53.060;9.342;2024-03-08T02:08:01;101838.50;;;-0.91;100.00
75460;BME280;64039;53.060;9.342;2024-03-08T02:10:28;101828.69;;;-0.86;100.00
75460;BME280;64039;53.060;9.342;2024-03-08T02:12:53;101837.63;;;-0.91;100.00
75460;BME280;64039;53.060;9.342;2024-03-08T02:15:19;101825.88;;;-1.00;100.00
75460;BME280;64039;53.060;9.342;2024-03-08T02:17:45;101820.50;;;-0.92;100.00
75460;BME280;64039;53.060;9.342;2024-03-08T02:20:10;101825.63;;;-0.92;100.00
75460;BME280;64039;53.060;9.342;2024-03-08T02:22:38;101827.16;;;-0.84;100.00
75460;BME280;64039;53.060;9.342;2024-03-08T02:25:04;101819.47;;;-0.95;100.00
75460;BME280;64039;53.060;9.342;2024-03-08T02:27:31;101817.44;;;-0.88;100.00
75460;BME280;64039;53.060;9.342;2024-03-08T02:29:57;101821.53;;;-0.90;100.00
75460;BME280;64039;53.060;9.342;2024-03-08T02:32:25;101812.44;;;-1.07;100.00
75460;BME280;64039;53.060;9.342;2024-03-08T02:34:51;101814.75;;;-1.11;100.00
75460;BME280;64039;53.060;9.342;2024-03-08T02:37:17;101810.41;;;-1.01;100.00
75460;BME280;64039;53.060;9.342;2024-03-08T02:39:42;101807.09;;;-1.11;100.00
75460;BME280;64039;53.060;9.342;2024-03-08T02:42:08;101796.72;;;-1.02;100.00
75460;BME280;64039;53.060;9.342;2024-03-08T02:44:33;101794.56;;;-1.07;100.00
75460;BME280;64039;53.060;9.342;2024-03-08T02:46:59;101795.06;;;-1.12;100.00
75460;BME280;64039;53.060;9.342;2024-03-08T02:49:25;101784.09;;;-1.11;100.00
75460;BME280;64039;53.060;9.342;2024-03-08T02:51:54;101784.69;;;-1.13;100.00
75460;BME280;64039;53.060;9.342;2024-03-08T02:54:22;101776.03;;;-1.15;100.00
75460;BME280;64039;53.060;9.342;2024-03-08T02:56:47;101770.94;;;-1.15;100.00
75460;BME280;64039;53.060;9.342;2024-03-08T02:59:15;101775.13;;;-1.16;100.00
75460;BME280;64039;53.060;9.342;2024-03-08T03:01:43;101774.63;;;-1.12;100.00
75460;BME280;64039;53.060;9.342;2024-03-08T03:04:08;101778.22;;;-1.20;100.00
75460;BME280;64039;53.060;9.342;2024-03-08T03:06:34;101780.38;;;-1.24;100.00
75460;BME280;64039;53.060;9.342;2024-03-08T03:08:59;101783.97;;;-1.22;100.00
75460;BME280;64039;53.060;9.342;2024-03-08T03:11:24;101774.47;;;-1.34;100.00
75460;BME280;64039;53.060;9.342;2024-03-08T03:13:50;101779.88;;;-1.31;100.00
75460;BME280;64039;53.060;9.342;2024-03-08T03:16:19;101775.66;;;-1.20;100.00
75460;BME280;64039;53.060;9.342;2024-03-08T03:18:45;101775.50;;;-1.21;100.00
75460;BME280;64039;53.060;9.342;2024-03-08T03:21:11;101775.00;;;-1.28;100.00
75460;BME280;64039;53.060;9.342;2024-03-08T03:23:41;101772.03;;;-1.32;100.00
75460;BME280;64039;53.060;9.342;2024-03-08T03:26:08;101772.44;;;-1.28;100.00
75460;BME280;64039;53.060;9.342;2024-03-08T03:28:37;101769.50;;;-1.32;100.00
75460;BME280;64039;53.060;9.342;2024-03-08T03:31:06;101775.75;;;-1.29;100.00
75460;BME280;64039;53.060;9.342;2024-03-08T03:33:32;101772.81;;;-1.33;100.00
75460;BME280;64039;53.060;9.342;2024-03-08T03:35:59;101776.00;;;-1.36;100.00
75460;BME280;64039;53.060;9.342;2024-03-08T03:38:26;101770.25;;;-1.33;100.00
75460;BME280;64039;53.060;9.342;2024-03-08T03:40:53;101764.50;;;-1.41;100.00
75460;BME280;64039;53.060;9.342;2024-03-08T03:43:22;101770.66;;;-1.39;100.00
75460;BME280;64039;53.060;9.342;2024-03-08T03:45:48;101768.09;;;-1.39;100.00
75460;BME280;64039;53.060;9.342;2024-03-08T03:48:13;101764.25;;;-1.44;100.00
75460;BME280;64039;53.060;9.342;2024-03-08T03:50:39;101768.09;;;-1.39;100.00
75460;BME280;64039;53.060;9.342;2024-03-08T03:53:06;101767.94;;;-1.51;100.00
75460;BME280;64039;53.060;9.342;2024-03-08T03:55:35;101769.97;;;-1.57;100.00
75460;BME280;64039;53.060;9.342;2024-03-08T03:58:02;101762.81;;;-1.51;100.00
75460;BME280;64039;53.060;9.342;2024-03-08T04:00:28;101759.25;;;-1.53;100.00
75460;BME280;64039;53.060;9.342;2024-03-08T04:02:53;101758.09;;;-1.56;100.00
75460;BME280;64039;53.060;9.342;2024-03-08T04:05:19;101766.25;;;-1.61;100.00
75460;BME280;64039;53.060;9.342;2024-03-08T04:07:45;101768.84;;;-1.50;100.00
75460;BME280;64039;53.060;9.342;2024-03-08T04:10:13;101768.44;;;-1.55;100.00
75460;BME280;64039;53.060;9.342;2024-03-08T04:12:39;101755.31;;;-1.49;100.00
75460;BME280;64039;53.060;9.342;2024-03-08T04:15:05;101760.91;;;-1.53;100.00
75460;BME280;64039;53.060;9.342;2024-03-08T04:17:35;101757.22;;;-1.47;100.00
75460;BME280;64039;53.060;9.342;2024-03-08T04:20:04;101756.69;;;-1.43;100.00
75460;BME280;64039;53.060;9.342;2024-03-08T04:22:38;101756.94;;;-1.50;100.00
75460;BME280;64039;53.060;9.342;2024-03-08T04:25:05;101749.81;;;-1.54;100.00
75460;BME280;64039;53.060;9.342;2024-03-08T04:27:32;101748.28;;;-1.52;100.00
75460;BME280;64039;53.060;9.342;2024-03-08T04:29:58;101753.88;;;-1.56;100.00
75460;BME280;64039;53.060;9.342;2024-03-08T04:32:24;101750.19;;;-1.60;100.00
75460;BME280;64039;53.060;9.342;2024-03-08T04:34:50;101744.72;;;-1.54;100.00
75460;BME280;64039;53.060;9.342;2024-03-08T04:37:15;101749.06;;;-1.53;100.00
75460;BME280;64039;53.060;9.342;2024-03-08T04:39:43;101742.25;;;-1.63;100.00
75460;BME280;64039;53.060;9.342;2024-03-08T04:42:09;101748.66;;;-1.58;100.00
75460;BME280;64039;53.060;9.342;2024-03-08T04:44:36;101748.28;;;-1.52;100.00
75460;BME280;64039;53.060;9.342;2024-03-08T04:47:03;101746.34;;;-1.54;100.00
75460;BME280;64039;53.060;9.342;2024-03-08T04:49:32;101747.34;;;-1.63;100.00
75460;BME280;64039;53.060;9.342;2024-03-08T04:51:58;101746.09;;;-1.58;100.00
75460;BME280;64039;53.060;9.342;2024-03-08T04:54:23;101737.28;;;-1.61;100.00
75460;BME280;64039;53.060;9.342;2024-03-08T04:56:49;101741.25;;;-1.65;100.00
75460;BME280;64039;53.060;9.342;2024-03-08T04:59:14;101736.13;;;-1.65;100.00
75460;BME280;64039;53.060;9.342;2024-03-08T05:01:40;101739.22;;;-1.59;100.00
75460;BME280;64039;53.060;9.342;2024-03-08T05:04:05;101736.66;;;-1.59;100.00
75460;BME280;64039;53.060;9.342;2024-03-08T05:06:31;101732.44;;;-1.58;100.00
75460;BME280;64039;53.060;9.342;2024-03-08T05:08:56;101738.19;;;-1.61;100.00
75460;BME280;64039;53.060;9.342;2024-03-08T05:11:22;101732.19;;;-1.61;100.00
75460;BME280;64039;53.060;9.342;2024-03-08T05:13:47;101725.81;;;-1.56;100.00
75460;BME280;64039;53.060;9.342;2024-03-08T05:16:13;101724.25;;;-1.64;100.00
75460;BME280;64039;53.060;9.342;2024-03-08T05:18:40;101723.59;;;-1.72;100.00
75460;BME280;64039;53.060;9.342;2024-03-08T05:21:07;101725.28;;;-1.62;100.00
75460;BME280;64039;53.060;9.342;2024-03-08T05:23:34;101721.59;;;-1.66;100.00
75460;BME280;64039;53.060;9.342;2024-03-08T05:26:00;101726.69;;;-1.66;100.00
75460;BME280;64039;53.060;9.342;2024-03-08T05:28:26;101720.19;;;-1.62;100.00
75460;BME280;64039;53.060;9.342;2024-03-08T05:30:51;101724.91;;;-1.67;100.00
75460;BME280;64039;53.060;9.342;2024-03-08T05:33:17;101722.72;;;-1.72;100.00
75460;BME280;64039;53.060;9.342;2024-03-08T05:35:42;101722.84;;;-1.81;100.00
75460;BME280;64039;53.060;9.342;2024-03-08T05:38:08;101726.50;;;-1.88;100.00
75460;BME280;64039;53.060;9.342;2024-03-08T05:40:34;101721.44;;;-1.78;100.00
75460;BME280;64039;53.060;9.342;2024-03-08T05:42:59;101724.00;;;-1.78;100.00
75460;BME280;64039;53.060;9.342;2024-03-08T05:45:25;101726.03;;;-1.74;100.00
75460;BME280;64039;53.060;9.342;2024-03-08T05:47:50;101729.84;;;-1.79;100.00
75460;BME280;64039;53.060;9.342;2024-03-08T05:50:17;101726.38;;;-1.79;100.00
75460;BME280;64039;53.060;9.342;2024-03-08T05:52:42;101729.97;;;-1.77;100.00
75460;BME280;64039;53.060;9.342;2024-03-08T05:55:08;101729.19;;;-1.86;100.00
75460;BME280;64039;53.060;9.342;2024-03-08T05:57:35;101726.91;;;-1.83;100.00
75460;BME280;64039;53.060;9.342;2024-03-08T06:00:03;101723.50;;;-1.63;100.00
75460;BME280;64039;53.060;9.342;2024-03-08T06:02:29;101725.38;;;-1.71;100.00
75460;BME280;64039;53.060;9.342;2024-03-08T06:04:54;101713.13;;;-1.75;100.00
75460;BME280;64039;53.060;9.342;2024-03-08T06:07:20;101722.97;;;-1.69;100.00
75460;BME280;64039;53.060;9.342;2024-03-08T06:09:45;101723.38;;;-1.65;100.00
75460;BME280;64039;53.060;9.342;2024-03-08T06:12:13;101716.47;;;-1.66;100.00
75460;BME280;64039;53.060;9.342;2024-03-08T06:14:44;101719.53;;;-1.70;100.00
75460;BME280;64039;53.060;9.342;2024-03-08T06:17:10;101712.41;;;-1.53;100.00
75460;BME280;64039;53.060;9.342;2024-03-08T06:19:36;101714.47;;;-1.49;100.00
75460;BME280;64039;53.060;9.342;2024-03-08T06:22:01;101710.00;;;-1.52;100.00
75460;BME280;64039;53.060;9.342;2024-03-08T06:24:31;101711.13;;;-1.48;100.00
75460;BME280;64039;53.060;9.342;2024-03-08T06:26:57;101713.94;;;-1.35;100.00
75460;BME280;64039;53.060;9.342;2024-03-08T06:29:22;101707.97;;;-1.35;100.00
75460;BME280;64039;53.060;9.342;2024-03-08T06:31:49;101704.13;;;-1.30;100.00
75460;BME280;64039;53.060;9.342;2024-03-08T06:34:15;101704.50;;;-1.36;100.00
75460;BME280;64039;53.060;9.342;2024-03-08T06:36:40;101699.66;;;-1.33;100.00
75460;BME280;64039;53.060;9.342;2024-03-08T06:39:06;101702.31;;;-1.31;100.00
75460;BME280;64039;53.060;9.342;2024-03-08T06:41:36;101704.75;;;-1.22;100.00
75460;BME280;64039;53.060;9.342;2024-03-08T06:44:01;101700.03;;;-1.28;100.00
75460;BME280;64039;53.060;9.342;2024-03-08T06:46:27;101698.25;;;-1.19;100.00
75460;BME280;64039;53.060;9.342;2024-03-08T06:48:53;101694.94;;;-1.18;100.00
75460;BME280;64039;53.060;9.342;2024-03-08T06:51:19;101702.06;;;-1.14;100.00
75460;BME280;64039;53.060;9.342;2024-03-08T06:53:45;101697.06;;;-1.02;100.00
75460;BME280;64039;53.060;9.342;2024-03-08T06:56:10;101692.31;;;-0.87;100.00
75460;BME280;64039;53.060;9.342;2024-03-08T06:58:35;101703.06;;;-0.91;100.00
75460;BME280;64039;53.060;9.342;2024-03-08T07:01:01;101698.31;;;-0.86;100.00
75460;BME280;64039;53.060;9.342;2024-03-08T07:03:29;101698.84;;;-0.80;100.00
75460;BME280;64039;53.060;9.342;2024-03-08T07:05:56;101703.53;;;-0.74;100.00
75460;BME280;64039;53.060;9.342;2024-03-08T07:08:23;101706.09;;;-0.74;100.00
75460;BME280;64039;53.060;9.342;2024-03-08T07:10:49;101707.88;;;-0.73;100.00
75460;BME280;64039;53.060;9.342;2024-03-08T07:13:15;101707.22;;;-0.60;100.00
75460;BME280;64039;53.060;9.342;2024-03-08T07:15:43;101707.97;;;-0.51;100.00
75460;BME280;64039;53.060;9.342;2024-03-08T07:18:08;101706.78;;;-0.44;100.00
75460;BME280;64039;53.060;9.342;2024-03-08T07:20:34;101700.91;;;-0.43;100.00
75460;BME280;64039;53.060;9.342;2024-03-08T07:23:02;101702.34;;;-0.47;100.00
75460;BME280;64039;53.060;9.342;2024-03-08T07:25:29;101708.94;;;-0.39;100.00
75460;BME280;64039;53.060;9.342;2024-03-08T07:27:56;101707.53;;;-0.35;100.00
75460;BME280;64039;53.060;9.342;2024-03-08T07:30:23;101705.28;;;-0.20;100.00
75460;BME280;64039;53.060;9.342;2024-03-08T07:33:09;101706.28;;;-0.18;100.00
75460;BME280;64039;53.060;9.342;2024-03-08T07:35:40;101704.22;;;-0.12;100.00
75460;BME280;64039;53.060;9.342;2024-03-08T07:38:09;101699.72;;;-0.04;100.00
75460;BME280;64039;53.060;9.342;2024-03-08T07:40:39;101701.38;;;-0.05;100.00
75460;BME280;64039;53.060;9.342;2024-03-08T07:43:10;101697.50;;;0.01;100.00
75460;BME280;64039;53.060;9.342;2024-03-08T07:45:39;101690.66;;;0.11;100.00
75460;BME280;64039;53.060;9.342;2024-03-08T07:48:05;101689.56;;;0.20;100.00
75460;BME280;64039;53.060;9.342;2024-03-08T07:50:38;101695.63;;;0.20;100.00
75460;BME280;64039;53.060;9.342;2024-03-08T07:53:05;101690.91;;;0.37;100.00
75460;BME280;64039;53.060;9.342;2024-03-08T07:55:34;101701.25;;;0.38;100.00
75460;BME280;64039;53.060;9.342;2024-03-08T07:58:01;101691.69;;;0.47;100.00
75460;BME280;64039;53.060;9.342;2024-03-08T08:00:26;101684.59;;;0.55;100.00
75460;BME280;64039;53.060;9.342;2024-03-08T08:02:55;101682.63;;;0.63;100.00
75460;BME280;64039;53.060;9.342;2024-03-08T08:05:21;101679.97;;;0.73;100.00
75460;BME280;64039;53.060;9.342;2024-03-08T08:07:46;101681.53;;;0.83;100.00
75460;BME280;64039;53.060;9.342;2024-03-08T08:10:12;101678.78;;;0.92;100.00
75460;BME280;64039;53.060;9.342;2024-03-08T08:12:50;101681.38;;;1.04;100.00
75460;BME280;64039;53.060;9.342;2024-03-08T08:15:19;101681.69;;;1.08;100.00
75460;BME280;64039;53.060;9.342;2024-03-08T08:17:45;101670.53;;;1.32;100.00
75460;BME280;64039;53.060;9.342;2024-03-08T08:20:12;101663.75;;;1.44;100.00
75460;BME280;64039;53.060;9.342;2024-03-08T08:22:42;101667.75;;;1.52;100.00
75460;BME280;64039;53.060;9.342;2024-03-08T08:25:10;101659.34;;;1.67;100.00
75460;BME280;64039;53.060;9.342;2024-03-08T08:27:39;101667.78;;;1.78;100.00
75460;BME280;64039;53.060;9.342;2024-03-08T08:30:10;101667.44;;;1.85;100.00
75460;BME280;64039;53.060;9.342;2024-03-08T08:32:37;101658.03;;;1.97;100.00
75460;BME280;64039;53.060;9.342;2024-03-08T08:35:03;101654.06;;;1.89;100.00
75460;BME280;64039;53.060;9.342;2024-03-08T08:37:30;101655.22;;;2.06;100.00
75460;BME280;64039;53.060;9.342;2024-03-08T08:39:56;101649.59;;;2.12;100.00
75460;BME280;64039;53.060;9.342;2024-03-08T08:42:23;101648.91;;;2.26;100.00
75460;BME280;64039;53.060;9.342;2024-03-08T08:44:48;101647.16;;;2.39;100.00
75460;BME280;64039;53.060;9.342;2024-03-08T08:47:16;101642.53;;;2.46;100.00
75460;BME280;64039;53.060;9.342;2024-03-08T08:49:44;101648.69;;;2.62;100.00
75460;BME280;64039;53.060;9.342;2024-03-08T08:52:12;101640.78;;;2.59;100.00
75460;BME280;64039;53.060;9.342;2024-03-08T08:54:37;101641.19;;;2.65;100.00
75460;BME280;64039;53.060;9.342;2024-03-08T08:57:03;101642.31;;;2.82;100.00
75460;BME280;64039;53.060;9.342;2024-03-08T08:59:33;101633.72;;;2.95;100.00
75460;BME280;64039;53.060;9.342;2024-03-08T09:02:03;101640.53;;;2.94;100.00
75460;BME280;64039;53.060;9.342;2024-03-08T09:04:29;101638.97;;;3.10;100.00
75460;BME280;64039;53.060;9.342;2024-03-08T09:06:56;101633.22;;;3.27;100.00
75460;BME280;64039;53.060;9.342;2024-03-08T09:09:22;101623.34;;;3.34;99.43
75460;BME280;64039;53.060;9.342;2024-03-08T09:11:48;101623.00;;;3.42;100.00
75460;BME280;64039;53.060;9.342;2024-03-08T09:14:14;101622.72;;;3.51;99.06
75460;BME280;64039;53.060;9.342;2024-03-08T09:16:40;101619.63;;;3.57;97.72
75460;BME280;64039;53.060;9.342;2024-03-08T09:19:06;101612.72;;;3.56;95.98
75460;BME280;64039;53.060;9.342;2024-03-08T09:21:34;101610.59;;;3.77;96.91
75460;BME280;64039;53.060;9.342;2024-03-08T09:24:01;101602.88;;;3.92;97.13
75460;BME280;64039;53.060;9.342;2024-03-08T09:26:26;101594.50;;;4.09;95.79
75460;BME280;64039;53.060;9.342;2024-03-08T09:28:52;101587.19;;;4.02;92.61
75460;BME280;64039;53.060;9.342;2024-03-08T09:31:17;101590.91;;;4.07;94.30
75460;BME280;64039;53.060;9.342;2024-03-08T09:33:43;101581.28;;;4.18;93.76
75460;BME280;64039;53.060;9.342;2024-03-08T09:36:08;101590.97;;;4.22;93.38
75460;BME280;64039;53.060;9.342;2024-03-08T09:38:34;101589.84;;;4.32;93.06
75460;BME280;64039;53.060;9.342;2024-03-08T09:41:02;101584.03;;;4.36;91.73
75460;BME280;64039;53.060;9.342;2024-03-08T09:43:29;101578.53;;;4.30;89.72
75460;BME280;64039;53.060;9.342;2024-03-08T09:45:57;101576.66;;;4.43;88.72
75460;BME280;64039;53.060;9.342;2024-03-08T09:48:22;101575.06;;;4.45;88.65
75460;BME280;64039;53.060;9.342;2024-03-08T09:50:48;101573.03;;;4.39;87.04
75460;BME280;64039;53.060;9.342;2024-03-08T09:53:14;101569.03;;;4.59;89.03
75460;BME280;64039;53.060;9.342;2024-03-08T09:55:40;101559.50;;;4.73;87.80
75460;BME280;64039;53.060;9.342;2024-03-08T09:58:12;101561.81;;;4.83;87.12
75460;BME280;64039;53.060;9.342;2024-03-08T10:00:56;101557.00;;;4.75;86.53
75460;BME280;64039;53.060;9.342;2024-03-08T10:03:23;101552.47;;;4.85;86.24
75460;BME280;64039;53.060;9.342;2024-03-08T10:05:48;101538.50;;;4.82;82.73
75460;BME280;64039;53.060;9.342;2024-03-08T10:08:14;101534.28;;;4.99;83.68
75460;BME280;64039;53.060;9.342;2024-03-08T10:10:39;101542.88;;;5.14;84.49
75460;BME280;64039;53.060;9.342;2024-03-08T10:13:09;101538.09;;;5.37;84.80
75460;BME280;64039;53.060;9.342;2024-03-08T10:15:36;101532.03;;;5.37;83.81
75460;BME280;64039;53.060;9.342;2024-03-08T10:18:01;101521.69;;;5.37;83.62
75460;BME280;64039;53.060;9.342;2024-03-08T10:20:32;101518.06;;;5.33;79.15
75460;BME280;64039;53.060;9.342;2024-03-08T10:23:01;101512.50;;;5.42;80.10
75460;BME280;64039;53.060;9.342;2024-03-08T10:25:29;101509.91;;;5.58;80.08
75460;BME280;64039;53.060;9.342;2024-03-08T10:27:55;101509.03;;;5.58;79.16
75460;BME280;64039;53.060;9.342;2024-03-08T10:30:21;101508.00;;;5.71;78.20
75460;BME280;64039;53.060;9.342;2024-03-08T10:32:47;101502.56;;;5.82;76.65
75460;BME280;64039;53.060;9.342;2024-03-08T10:35:13;101496.84;;;5.88;74.83
75460;BME280;64039;53.060;9.342;2024-03-08T10:37:49;101490.84;;;5.89;75.91
75460;BME280;64039;53.060;9.342;2024-03-08T10:40:24;101491.16;;;5.95;73.83
75460;BME280;64039;53.060;9.342;2024-03-08T10:42:57;101492.13;;;6.14;75.79
75460;BME280;64039;53.060;9.342;2024-03-08T10:45:38;101484.16;;;6.27;74.01
75460;BME280;64039;53.060;9.342;2024-03-08T10:48:29;101485.94;;;6.28;75.67
75460;BME280;64039;53.060;9.342;2024-03-08T10:51:04;101473.41;;;6.36;73.27
75460;BME280;64039;53.060;9.342;2024-03-08T10:53:30;101474.72;;;6.46;73.72
75460;BME280;64039;53.060;9.342;2024-03-08T10:56:00;101481.22;;;6.56;74.90
75460;BME280;64039;53.060;9.342;2024-03-08T10:58:27;101464.25;;;6.61;73.03
75460;BME280;64039;53.060;9.342;2024-03-08T11:00:53;101455.53;;;6.59;71.80
75460;BME280;64039;53.060;9.342;2024-03-08T11:03:46;101447.91;;;6.26;68.94
75460;BME280;64039;53.060;9.342;2024-03-08T11:11:47;101449.22;;;6.36;70.13
75460;BME280;64039;53.060;9.342;2024-03-08T11:14:45;101442.72;;;6.44;69.67
75460;BME280;64039;53.060;9.342;2024-03-08T11:17:14;101444.72;;;6.68;70.64
75460;BME280;64039;53.060;9.342;2024-03-08T11:19:47;101430.66;;;6.81;68.91
75460;BME280;64039;53.060;9.342;2024-03-08T11:22:26;101427.72;;;6.73;70.19
75460;BME280;64039;53.060;9.342;2024-03-08T11:24:53;101425.47;;;6.81;67.72
75460;BME280;64039;53.060;9.342;2024-03-08T11:27:18;101423.09;;;6.85;68.57
75460;BME280;64039;53.060;9.342;2024-03-08T11:29:59;101413.16;;;6.95;68.00
75460;BME280;64039;53.060;9.342;2024-03-08T11:32:28;101413.94;;;7.12;66.64
75460;BME280;64039;53.060;9.342;2024-03-08T11:34:55;101394.25;;;7.15;65.97
75460;BME280;64039;53.060;9.342;2024-03-08T11:37:21;101399.50;;;7.17;65.04
75460;BME280;64039;53.060;9.342;2024-03-08T11:39:53;101398.75;;;7.19;63.79
75460;BME280;64039;53.060;9.342;2024-03-08T11:42:25;101402.16;;;7.38;65.67
75460;BME280;64039;53.060;9.342;2024-03-08T11:44:52;101390.91;;;7.37;63.46
75460;BME280;64039;53.060;9.342;2024-03-08T11:47:18;101389.41;;;7.23;62.13
75460;BME280;64039;53.060;9.342;2024-03-08T11:49:44;101384.97;;;7.40;63.82
75460;BME280;64039;53.060;9.342;2024-03-08T11:52:16;101379.03;;;7.43;64.21
75460;BME280;64039;53.060;9.342;2024-03-08T11:54:42;101382.13;;;7.34;64.20
75460;BME280;64039;53.060;9.342;2024-03-08T11:57:08;101377.22;;;7.40;63.81
75460;BME280;64039;53.060;9.342;2024-03-08T11:59:35;101367.13;;;7.67;64.44
75460;BME280;64039;53.060;9.342;2024-03-08T12:02:05;101367.06;;;7.66;63.03
75460;BME280;64039;53.060;9.342;2024-03-08T12:04:31;101355.88;;;7.67;62.18
75460;BME280;64039;53.060;9.342;2024-03-08T12:07:00;101353.09;;;7.62;62.31
75460;BME280;64039;53.060;9.342;2024-03-08T12:09:35;101346.78;;;7.77;63.42
75460;BME280;64039;53.060;9.342;2024-03-08T12:12:02;101346.06;;;7.81;63.02
75460;BME280;64039;53.060;9.342;2024-03-08T12:14:29;101337.19;;;7.74;62.80
75460;BME280;64039;53.060;9.342;2024-03-08T12:16:55;101328.41;;;7.70;63.26
75460;BME280;64039;53.060;9.342;2024-03-08T12:19:20;101328.31;;;7.90;63.20
75460;BME280;64039;53.060;9.342;2024-03-08T12:21:46;101321.91;;;7.82;63.22
75460;BME280;64039;53.060;9.342;2024-03-08T12:24:18;101320.91;;;7.99;63.94
75460;BME280;64039;53.060;9.342;2024-03-08T12:26:47;101309.28;;;7.90;61.92
75460;BME280;64039;53.060;9.342;2024-03-08T12:29:26;101306.44;;;8.05;61.91
75460;BME280;64039;53.060;9.342;2024-03-08T12:31:55;101303.28;;;8.13;62.67
75460;BME280;64039;53.060;9.342;2024-03-08T12:34:24;101312.13;;;7.96;61.64
75460;BME280;64039;53.060;9.342;2024-03-08T12:36:51;101296.97;;;7.84;61.61
75460;BME280;64039;53.060;9.342;2024-03-08T12:39:22;101297.69;;;8.02;61.50
75460;BME280;64039;53.060;9.342;2024-03-08T12:41:55;101285.50;;;8.23;61.80
75460;BME280;64039;53.060;9.342;2024-03-08T12:44:22;101285.69;;;8.27;60.55
75460;BME280;64039;53.060;9.342;2024-03-08T12:46:48;101282.22;;;8.49;60.47
75460;BME280;64039;53.060;9.342;2024-03-08T12:49:14;101284.56;;;8.43;60.43
75460;BME280;64039;53.060;9.342;2024-03-08T12:51:43;101269.19;;;8.48;60.76
75460;BME280;64039;53.060;9.342;2024-03-08T12:54:09;101271.06;;;8.52;60.01